Time;durP1;ratioP1;P1;durP2;ratioP2;P2;SDS_P1;SDS_P2;PMS_P1;PMS_P2;Temp;Humidity;BMP_temperature;BMP_pressure;BME280_temperature;BME280_humidity;BME280_pressure;Samples;Min_cycle;Max_cycle;Signal;HPM_P1;HPM_P2
2023/04/12 00:00:47;;;;;;;7.97;2.78;;;5.40;86.50;;;;;;5075687;28;20090;-45
2023/04/12 00:03:12;;;;;;;8.15;2.70;;;5.50;86.40;;;;;;5058207;28;20024;-47
2023/04/12 00:05:38;;;;;;;12.07;3.90;;;5.50;86.20;;;;;;5058312;28;20029;-44
2023/04/12 00:08:09;;;;;;;8.38;2.63;;;5.50;86.00;;;;;;5058637;28;20107;-47
2023/04/12 00:10:35;;;;;;;9.73;3.40;;;5.60;85.90;;;;;;5075742;28;20041;-43
2023/04/12 00:13:04;;;;;;;10.82;3.13;;;5.60;85.80;;;;;;5075774;28;20050;-43
2023/04/12 00:15:30;;;;;;;7.40;2.90;;;5.60;85.40;;;;;;5075890;28;20031;-45
2023/04/12 00:17:57;;;;;;;10.48;3.15;;;5.60;85.30;;;;;;5075925;28;20021;-48
2023/04/12 00:20:24;;;;;;;13.07;3.08;;;5.50;85.30;;;;;;5075510;28;20031;-42
2023/04/12 00:22:52;;;;;;;11.98;4.80;;;5.60;85.30;;;;;;5075777;28;20072;-42
2023/04/12 00:25:19;;;;;;;13.77;4.55;;;5.70;85.00;;;;;;5075999;28;20040;-44
2023/04/12 00:27:46;;;;;;;10.48;4.13;;;5.70;84.40;;;;;;5075626;28;20028;-44
2023/04/12 00:30:16;;;;;;;10.32;3.65;;;5.80;84.20;;;;;;5075784;28;20020;-42
2023/04/12 00:32:43;;;;;;;11.88;3.78;;;5.90;83.80;;;;;;5075539;28;20039;-43
2023/04/12 00:35:10;;;;;;;7.25;3.45;;;5.90;83.70;;;;;;5074693;28;20111;-45
2023/04/12 00:37:37;;;;;;;7.95;2.85;;;6.00;83.20;;;;;;5075459;28;20020;-43
2023/04/12 00:40:05;;;;;;;11.45;3.60;;;6.00;82.90;;;;;;5081944;28;20024;-44
2023/04/12 00:42:38;;;;;;;6.18;2.85;;;6.00;82.90;;;;;;5096013;28;20031;-44
2023/04/12 00:45:08;;;;;;;9.73;3.92;;;6.10;82.40;;;;;;5076472;28;20032;-43
2023/04/12 00:47:41;;;;;;;6.72;3.72;;;6.10;82.30;;;;;;5075614;28;20024;-44
2023/04/12 00:50:09;;;;;;;9.00;2.88;;;6.10;81.90;;;;;;5075366;28;20115;-43
2023/04/12 00:52:42;;;;;;;12.05;2.88;;;6.20;81.70;;;;;;5075266;28;20029;-44
2023/04/12 00:55:09;;;;;;;9.25;3.53;;;6.20;81.70;;;;;;5075289;28;20373;-43
2023/04/12 00:57:40;;;;;;;8.27;3.40;;;6.20;81.70;;;;;;5074726;28;20324;-44
2023/04/12 01:00:15;;;;;;;10.48;2.97;;;6.20;81.60;;;;;;5074802;28;20342;-44
2023/04/12 01:02:49;;;;;;;11.18;3.03;;;6.20;81.40;;;;;;5074164;28;20032;-44
2023/04/12 01:05:22;;;;;;;9.07;2.80;;;6.20;81.50;;;;;;5075135;28;20116;-44
2023/04/12 01:08:06;;;;;;;9.38;2.92;;;6.30;81.30;;;;;;5074749;28;20039;-44
2023/04/12 01:11:10;;;;;;;12.40;3.75;;;6.30;81.10;;;;;;5074486;28;20047;-44
2023/04/12 01:14:00;;;;;;;9.63;3.45;;;6.30;80.70;;;;;;5074803;28;20028;-46
2023/04/12 01:16:49;;;;;;;10.75;3.70;;;6.40;80.60;;;;;;5074842;28;20434;-47
2023/04/12 01:20:12;;;;;;;9.98;4.18;;;6.40;80.40;;;;;;5074822;28;20048;-43
2023/04/12 01:23:02;;;;;;;6.40;2.80;;;6.40;80.20;;;;;;5036587;28;20039;-45
2023/04/12 01:25:46;;;;;;;9.15;3.08;;;6.40;80.00;;;;;;5074574;28;20369;-44
2023/04/12 01:28:31;;;;;;;12.30;3.72;;;6.40;79.80;;;;;;5074529;28;20358;-44
2023/04/12 01:31:02;;;;;;;11.93;3.50;;;6.40;80.00;;;;;;5074363;28;20033;-46
2023/04/12 01:33:32;;;;;;;10.27;3.53;;;6.40;79.80;;;;;;5074576;28;20055;-49
2023/04/12 01:36:01;;;;;;;6.60;2.88;;;6.40;79.80;;;;;;5077303;28;20031;-45
2023/04/12 01:38:28;;;;;;;7.85;3.03;;;6.40;79.80;;;;;;5094764;28;20386;-47
2023/04/12 01:40:58;;;;;;;8.35;2.80;;;6.40;79.60;;;;;;5094484;28;20147;-44
2023/04/12 01:43:25;;;;;;;9.57;3.67;;;6.50;79.40;;;;;;5094756;28;20487;-44
2023/04/12 01:45:54;;;;;;;7.50;3.05;;;6.50;78.90;;;;;;5083960;28;20036;-44
2023/04/12 01:48:21;;;;;;;9.30;3.03;;;6.50;78.80;;;;;;5073016;28;20102;-48
2023/04/12 01:50:58;;;;;;;6.60;2.58;;;6.60;78.70;;;;;;5074085;28;20044;-46
2023/04/12 01:53:35;;;;;;;9.52;2.58;;;6.60;78.00;;;;;;5073764;28;20033;-45
2023/04/12 01:56:07;;;;;;;10.68;3.95;;;6.70;77.90;;;;;;5073737;28;20107;-49
2023/04/12 01:58:36;;;;;;;9.10;2.97;;;6.70;78.00;;;;;;5073918;28;20071;-46
2023/04/12 02:01:04;;;;;;;8.65;2.83;;;6.80;77.80;;;;;;5073761;28;20085;-45
2023/04/12 02:03:31;;;;;;;12.73;4.25;;;6.80;77.60;;;;;;5073887;28;20024;-45
2023/04/12 02:05:58;;;;;;;7.30;2.63;;;6.80;77.70;;;;;;5073776;28;20029;-46
2023/04/12 02:08:25;;;;;;;6.47;2.90;;;6.80;77.60;;;;;;5073466;28;20047;-47
2023/04/12 02:10:50;;;;;;;10.45;2.83;;;6.80;77.40;;;;;;5083816;28;20146;-46
2023/04/12 02:13:17;;;;;;;12.68;3.28;;;6.90;76.80;;;;;;5093911;28;20123;-46
2023/04/12 02:15:44;;;;;;;7.85;3.05;;;6.90;76.80;;;;;;5076016;28;20510;-45
2023/04/12 02:18:16;;;;;;;8.27;3.20;;;6.90;76.80;;;;;;5086267;28;20028;-49
2023/04/12 02:20:43;;;;;;;8.23;2.60;;;6.90;76.80;;;;;;5073421;28;20397;-45
2023/04/12 02:23:11;;;;;;;10.20;4.38;;;6.80;76.70;;;;;;5073368;28;20021;-46
2023/04/12 02:25:40;;;;;;;7.90;2.35;;;6.90;76.40;;;;;;5073812;28;20059;-50
2023/04/12 02:28:07;;;;;;;8.77;2.47;;;6.90;76.50;;;;;;5089861;28;20390;-48
2023/04/12 02:30:37;;;;;;;8.90;3.50;;;6.90;76.70;;;;;;5073287;28;20028;-46
2023/04/12 02:33:04;;;;;;;10.77;3.42;;;6.80;76.20;;;;;;5055384;28;20040;-47
2023/04/12 02:35:35;;;;;;;8.50;2.60;;;6.90;76.40;;;;;;5073160;28;20653;-47
2023/04/12 02:38:02;;;;;;;6.47;2.92;;;6.80;76.40;;;;;;5073269;28;20032;-47
2023/04/12 02:40:29;;;;;;;9.52;3.03;;;6.80;76.90;;;;;;5073346;28;20020;-44
2023/04/12 02:42:56;;;;;;;11.80;4.38;;;6.80;76.70;;;;;;5055547;28;20044;-50
2023/04/12 02:45:26;;;;;;;8.68;2.80;;;6.80;76.70;;;;;;5055622;28;20024;-48
2023/04/12 02:47:52;;;;;;;8.95;2.67;;;6.80;76.40;;;;;;5073180;28;20047;-47
2023/04/12 02:50:19;;;;;;;13.93;3.85;;;6.90;75.90;;;;;;5072940;28;20028;-45
2023/04/12 02:52:46;;;;;;;7.57;2.83;;;6.90;75.60;;;;;;5073001;28;20462;-48
2023/04/12 02:55:12;;;;;;;7.47;2.45;;;6.90;76.00;;;;;;5086987;28;20035;-47
2023/04/12 02:57:40;;;;;;;10.35;3.38;;;6.90;75.60;;;;;;5075316;28;20153;-46
2023/04/12 03:00:14;;;;;;;11.88;2.65;;;7.00;75.80;;;;;;5083357;28;20404;-48
2023/04/12 03:02:42;;;;;;;7.72;2.67;;;6.90;76.40;;;;;;5072929;28;20017;-45
2023/04/12 03:05:09;;;;;;;7.30;2.50;;;6.90;75.90;;;;;;5073033;28;20036;-47
2023/04/12 03:07:36;;;;;;;6.53;2.88;;;6.90;76.30;;;;;;5072970;28;20501;-48
2023/04/12 03:10:06;;;;;;;9.15;3.03;;;6.90;76.20;;;;;;5073050;28;20052;-48
2023/04/12 03:12:33;;;;;;;13.32;3.78;;;6.90;76.40;;;;;;5055164;28;20063;-45
2023/04/12 03:14:59;;;;;;;9.63;3.90;;;6.90;76.90;;;;;;5072440;28;20039;-50
2023/04/12 03:17:26;;;;;;;7.53;3.10;;;6.90;76.80;;;;;;5072836;28;20373;-44
2023/04/12 03:19:54;;;;;;;11.23;3.30;;;6.90;76.80;;;;;;5055122;28;20104;-47
2023/04/12 03:22:22;;;;;;;10.52;3.20;;;6.90;76.90;;;;;;5073073;28;20413;-45
2023/04/12 03:24:48;;;;;;;7.03;3.13;;;6.90;76.90;;;;;;5072726;28;20029;-44
2023/04/12 03:27:15;;;;;;;9.57;3.40;;;6.90;76.90;;;;;;5054854;28;20455;-45
2023/04/12 03:29:42;;;;;;;8.82;2.83;;;6.90;77.10;;;;;;5072897;28;20024;-46
2023/04/12 03:32:11;;;;;;;6.82;2.50;;;6.90;77.40;;;;;;5072834;28;20032;-45
2023/04/12 03:34:37;;;;;;;10.27;3.42;;;6.90;77.70;;;;;;5072936;28;20071;-45
2023/04/12 03:37:04;;;;;;;7.45;3.25;;;6.90;77.50;;;;;;5084085;28;20437;-46
2023/04/12 03:39:31;;;;;;;11.05;4.78;;;6.90;77.40;;;;;;5074852;28;20114;-46
2023/04/12 03:41:58;;;;;;;5.07;2.42;;;6.90;77.50;;;;;;5079813;28;20029;-46
2023/04/12 03:44:25;;;;;;;7.95;3.05;;;6.90;77.70;;;;;;5055140;28;20025;-45
2023/04/12 03:46:50;;;;;;;7.25;2.95;;;6.90;77.80;;;;;;5072520;28;20028;-47
2023/04/12 03:49:17;;;;;;;8.48;2.63;;;6.90;77.70;;;;;;5072469;28;20040;-46
2023/04/12 03:51:44;;;;;;;7.03;2.47;;;6.90;78.00;;;;;;5055294;28;20048;-45
2023/04/12 03:54:14;;;;;;;7.93;3.00;;;6.90;77.80;;;;;;5072549;28;20035;-46
2023/04/12 03:56:42;;;;;;;6.60;2.40;;;6.90;78.10;;;;;;5072289;28;20028;-44
2023/04/12 03:59:13;;;;;;;8.27;2.92;;;6.90;78.00;;;;;;5072378;28;20028;-45
2023/04/12 04:01:40;;;;;;;9.80;2.92;;;6.80;78.10;;;;;;5072495;28;20020;-47
2023/04/12 04:04:06;;;;;;;9.98;3.50;;;6.80;78.50;;;;;;5054634;28;20044;-45
2023/04/12 04:06:35;;;;;;;7.35;2.40;;;6.70;78.40;;;;;;5072333;28;20029;-45
2023/04/12 04:09:03;;;;;;;9.77;3.20;;;6.70;78.20;;;;;;5054542;28;20081;-45
2023/04/12 04:11:29;;;;;;;11.85;4.00;;;6.70;78.20;;;;;;5069716;28;20514;-45
2023/04/12 04:13:55;;;;;;;9.77;2.58;;;6.80;78.20;;;;;;5078323;28;20170;-45
2023/04/12 04:16:22;;;;;;;9.35;2.80;;;6.80;78.40;;;;;;5096434;28;20024;-44
2023/04/12 04:18:49;;;;;;;7.22;2.67;;;6.80;78.30;;;;;;5079429;28;20103;-45
2023/04/12 04:21:16;;;;;;;6.95;3.35;;;6.90;78.20;;;;;;5075827;28;20085;-47
2023/04/12 04:23:44;;;;;;;7.43;2.70;;;6.90;78.20;;;;;;5058082;28;20047;-46
2023/04/12 04:26:12;;;;;;;9.75;3.20;;;6.90;78.30;;;;;;5075944;28;20036;-47
2023/04/12 04:28:43;;;;;;;9.55;3.22;;;6.90;78.70;;;;;;5075699;28;20024;-44
2023/04/12 04:31:11;;;;;;;8.85;2.50;;;6.90;78.70;;;;;;5075842;28;20027;-44
2023/04/12 04:33:38;;;;;;;9.30;2.95;;;6.90;78.60;;;;;;5075661;28;20484;-47
2023/04/12 04:36:06;;;;;;;6.28;2.50;;;6.90;78.10;;;;;;5075529;28;20039;-45
2023/04/12 04:38:36;;;;;;;6.57;2.80;;;6.90;78.10;;;;;;5075653;28;20095;-44
2023/04/12 04:41:03;;;;;;;8.88;2.97;;;6.90;77.90;;;;;;5081451;28;20020;-45
2023/04/12 04:43:32;;;;;;;6.85;2.65;;;6.90;77.50;;;;;;5095995;28;20106;-45
2023/04/12 04:46:02;;;;;;;7.85;2.83;;;7.00;77.40;;;;;;5095722;28;20039;-45
2023/04/12 04:48:28;;;;;;;7.55;2.55;;;7.10;77.20;;;;;;5078078;28;20132;-45
2023/04/12 04:50:54;;;;;;;5.97;3.03;;;7.10;77.30;;;;;;5081269;28;20024;-44
2023/04/12 04:53:21;;;;;;;7.95;2.80;;;7.10;77.20;;;;;;5075121;28;20146;-46
2023/04/12 04:55:56;;;;;;;7.72;2.72;;;7.10;76.90;;;;;;5075084;28;20394;-47
2023/04/12 04:58:22;;;;;;;7.25;3.15;;;7.10;77.00;;;;;;5074475;28;20062;-49
2023/04/12 05:00:54;;;;;;;11.73;3.80;;;7.10;77.10;;;;;;5057262;28;20076;-46
2023/04/12 05:03:22;;;;;;;8.55;2.53;;;7.10;77.00;;;;;;5074822;28;20125;-45
2023/04/12 05:05:49;;;;;;;8.57;2.72;;;7.20;76.70;;;;;;5075124;28;20032;-45
2023/04/12 05:08:20;;;;;;;10.10;3.03;;;7.10;76.90;;;;;;5090433;28;20897;-45
2023/04/12 05:10:53;;;;;;;11.77;3.30;;;7.20;76.80;;;;;;5095025;28;20052;-46
2023/04/12 05:13:21;;;;;;;5.40;2.97;;;7.20;76.40;;;;;;5077003;28;20069;-47
2023/04/12 05:15:47;;;;;;;6.97;2.15;;;7.20;76.50;;;;;;5074856;28;20035;-47
2023/04/12 05:18:14;;;;;;;6.10;2.88;;;7.30;76.30;;;;;;5040617;28;20028;-45
2023/04/12 05:20:41;;;;;;;7.95;2.60;;;7.30;76.10;;;;;;5074523;28;20477;-45
2023/04/12 05:23:07;;;;;;;8.82;2.50;;;7.40;76.10;;;;;;5079497;28;20095;-51
2023/04/12 05:25:33;;;;;;;5.05;2.00;;;7.40;76.20;;;;;;5094681;28;20115;-44
2023/04/12 05:28:00;;;;;;;6.57;2.40;;;7.40;76.10;;;;;;5087862;28;20035;-46
2023/04/12 05:30:30;;;;;;;7.45;2.92;;;7.50;76.00;;;;;;5074762;28;20028;-45
2023/04/12 05:32:57;;;;;;;;;;;7.50;75.90;;;;;;5075542;28;20072;-45
2023/04/12 05:35:23;;;;;;;7.60;3.20;;;7.50;76.20;;;;;;5074388;28;20019;-47
2023/04/12 05:37:51;;;;;;;5.50;2.63;;;7.40;75.80;;;;;;5074316;28;20024;-48
2023/04/12 05:40:19;;;;;;;7.85;3.10;;;7.40;76.30;;;;;;5074684;28;20404;-47
2023/04/12 05:42:44;;;;;;;8.57;2.63;;;7.40;76.40;;;;;;5074385;28;20139;-44
2023/04/12 05:45:12;;;;;;;8.18;2.72;;;7.40;76.50;;;;;;5074137;28;20558;-48
2023/04/12 05:47:39;;;;;;;6.75;3.00;;;7.40;76.60;;;;;;5074443;28;20514;-46
2023/04/12 05:50:09;;;;;;;5.97;2.17;;;7.40;76.30;;;;;;5074182;28;20044;-46
2023/04/12 05:52:39;;;;;;;5.75;2.47;;;7.50;76.50;;;;;;5056704;28;20028;-44
2023/04/12 05:55:06;;;;;;;8.13;2.83;;;7.50;76.70;;;;;;5074056;28;20095;-46
2023/04/12 05:57:33;;;;;;;5.32;2.38;;;7.50;76.50;;;;;;5074048;28;20048;-45
2023/04/12 06:00:00;;;;;;;6.28;3.17;;;7.50;76.60;;;;;;5074415;28;20036;-47
2023/04/12 06:02:26;;;;;;;10.48;3.60;;;7.60;76.60;;;;;;5073825;28;20020;-49
2023/04/12 06:04:54;;;;;;;8.02;2.78;;;7.60;76.50;;;;;;5056459;28;20460;-47
2023/04/12 06:07:22;;;;;;;6.93;3.20;;;7.60;76.50;;;;;;5073915;28;20032;-48
2023/04/12 06:09:50;;;;;;;7.30;2.72;;;7.60;76.40;;;;;;5074038;28;20028;-47
2023/04/12 06:12:16;;;;;;;5.18;2.60;;;7.70;76.90;;;;;;5055996;28;20537;-43
2023/04/12 06:14:42;;;;;;;5.82;2.97;;;7.70;77.50;;;;;;5073354;28;20095;-45
2023/04/12 06:17:15;;;;;;;5.07;2.92;;;7.60;78.10;;;;;;5073647;28;20064;-44
2023/04/12 06:19:42;;;;;;;10.32;2.78;;;7.50;78.30;;;;;;5073273;28;20035;-48
2023/04/12 06:22:09;;;;;;;9.55;2.90;;;7.50;78.00;;;;;;5073735;28;20036;-50
2023/04/12 06:24:36;;;;;;;13.77;3.63;;;7.50;78.30;;;;;;5073478;28;20365;-46
2023/04/12 06:27:02;;;;;;;7.18;2.72;;;7.50;78.40;;;;;;5073324;28;20029;-45
2023/04/12 06:29:29;;;;;;;8.10;2.83;;;7.50;78.30;;;;;;5055712;28;20043;-47
2023/04/12 06:31:54;;;;;;;6.30;2.40;;;7.50;78.10;;;;;;5073438;28;20021;-44
2023/04/12 06:34:20;;;;;;;8.95;3.42;;;7.60;77.40;;;;;;5072841;28;20119;-44
2023/04/12 06:36:47;;;;;;;10.50;3.85;;;7.70;77.50;;;;;;5055634;28;20021;-46
2023/04/12 06:39:15;;;;;;;6.07;2.53;;;7.70;77.60;;;;;;5055838;28;20461;-44
2023/04/12 06:41:42;;;;;;;7.18;2.90;;;7.70;77.30;;;;;;5073324;28;20024;-45
2023/04/12 06:44:09;;;;;;;7.32;2.83;;;7.80;77.40;;;;;;5073537;28;20020;-46
2023/04/12 06:46:35;;;;;;;9.85;3.03;;;7.80;77.50;;;;;;5073124;28;20333;-45
2023/04/12 06:49:02;;;;;;;10.13;4.20;;;7.80;78.00;;;;;;5055276;28;20076;-45
2023/04/12 06:51:29;;;;;;;4.80;2.17;;;7.80;78.30;;;;;;5055268;28;20109;-44
2023/04/12 06:53:56;;;;;;;9.45;2.85;;;7.80;78.70;;;;;;5073074;28;20024;-43
2023/04/12 06:56:23;;;;;;;5.25;2.30;;;7.90;78.80;;;;;;5055397;28;20052;-43
2023/04/12 06:58:50;;;;;;;6.68;2.35;;;7.90;79.00;;;;;;5072959;28;20032;-43
2023/04/12 07:01:17;;;;;;;9.13;2.30;;;7.90;78.90;;;;;;5055332;28;20024;-44
2023/04/12 07:03:44;;;;;;;7.93;2.42;;;7.90;79.60;;;;;;5072954;28;20031;-43
2023/04/12 07:06:14;;;;;;;7.60;3.42;;;7.90;80.00;;;;;;5055475;28;20099;-44
2023/04/12 07:08:41;;;;;;;6.07;2.97;;;7.90;80.20;;;;;;5072860;28;20370;-43
2023/04/12 07:11:10;;;;;;;6.20;3.17;;;8.00;80.80;;;;;;5072776;28;20068;-43
2023/04/12 07:13:40;;;;;;;6.75;3.20;;;8.00;81.20;;;;;;5055507;28;20024;-45
2023/04/12 07:16:07;;;;;;;14.23;3.45;;;8.00;81.10;;;;;;5055100;28;20033;-45
2023/04/12 07:18:38;;;;;;;5.93;3.05;;;8.00;80.90;;;;;;5072719;28;20158;-47
2023/04/12 07:21:07;;;;;;;6.72;2.58;;;8.00;81.50;;;;;;5073108;28;20021;-47
2023/04/12 07:23:34;;;;;;;7.30;2.80;;;7.90;81.40;;;;;;5055146;28;20592;-51
2023/04/12 07:26:01;;;;;;;5.05;2.58;;;7.90;80.90;;;;;;5055060;28;20040;-50
2023/04/12 07:28:28;;;;;;;8.15;3.70;;;7.90;81.20;;;;;;5072607;28;20037;-51
2023/04/12 07:30:55;;;;;;;7.32;3.40;;;7.80;81.40;;;;;;5055189;28;20434;-54
2023/04/12 07:33:25;;;;;;;10.50;3.58;;;7.80;81.80;;;;;;5055226;28;20033;-50
2023/04/12 07:35:52;;;;;;;7.70;3.03;;;7.70;82.00;;;;;;5072642;28;20048;-50
2023/04/12 07:38:18;;;;;;;8.23;2.75;;;7.70;81.80;;;;;;5072582;28;20032;-51
2023/04/12 07:40:48;;;;;;;4.78;2.20;;;7.80;82.20;;;;;;5072730;28;20024;-51
2023/04/12 07:43:15;;;;;;;10.15;3.13;;;7.80;82.50;;;;;;5072277;28;20105;-50
2023/04/12 07:45:44;;;;;;;11.10;2.85;;;7.80;82.00;;;;;;5075474;28;20028;-54
2023/04/12 07:48:11;;;;;;;7.95;2.95;;;7.90;81.80;;;;;;5076374;28;20029;-50
2023/04/12 07:50:40;;;;;;;8.23;2.83;;;7.90;82.00;;;;;;5058265;28;20483;-50
2023/04/12 07:53:30;;;;;;;8.07;2.90;;;7.90;82.10;;;;;;5076423;28;20069;-52
2023/04/12 07:55:56;;;;;;;10.85;2.83;;;8.10;82.80;;;;;;5076166;28;20075;-50
2023/04/12 07:58:27;;;;;;;6.82;2.70;;;8.10;82.70;;;;;;5076359;28;20016;-50
2023/04/12 08:00:53;;;;;;;9.93;2.60;;;8.20;82.30;;;;;;5076413;28;20081;-51
2023/04/12 08:03:20;;;;;;;9.30;3.10;;;8.20;82.20;;;;;;5076237;28;20025;-56
2023/04/12 08:05:52;;;;;;;7.10;2.92;;;8.20;82.20;;;;;;5080375;28;20089;-55
2023/04/12 08:08:21;;;;;;;7.20;2.47;;;8.20;82.60;;;;;;5096358;28;20031;-58
2023/04/12 08:10:48;;;;;;;6.97;2.65;;;8.20;82.90;;;;;;5096063;28;20465;-56
2023/04/12 08:13:15;;;;;;;8.40;3.28;;;8.10;83.10;;;;;;5096385;28;20032;-56
2023/04/12 08:15:43;;;;;;;5.35;2.55;;;8.10;83.60;;;;;;5068546;28;20461;-57
2023/04/12 08:18:10;;;;;;;7.05;3.20;;;8.00;83.90;;;;;;5075616;28;20032;-55
2023/04/12 08:20:40;;;;;;;7.40;2.72;;;8.00;84.20;;;;;;5075788;28;20024;-57
2023/04/12 08:23:07;;;;;;;7.25;3.60;;;8.00;84.20;;;;;;5075958;28;20480;-58
2023/04/12 08:25:34;;;;;;;8.57;2.95;;;8.00;84.90;;;;;;5075875;28;20024;-59
2023/04/12 08:28:02;;;;;;;9.13;3.53;;;7.90;84.60;;;;;;5088457;28;20032;-58
2023/04/12 08:30:32;;;;;;;9.80;3.97;;;8.00;85.10;;;;;;5090143;28;20461;-58
2023/04/12 08:32:59;;;;;;;;;;;8.10;85.50;;;;;;5058790;28;20064;-58
2023/04/12 08:35:25;;;;;;;7.18;4.50;;;8.20;85.30;;;;;;5075952;28;19962;-57
2023/04/12 08:37:51;;;;;;;7.97;3.58;;;8.20;85.70;;;;;;5075361;28;20028;-53
2023/04/12 08:40:20;;;;;;;12.45;3.53;;;8.20;86.00;;;;;;5064007;28;20038;-57
2023/04/12 08:42:46;;;;;;;9.60;3.60;;;8.20;86.00;;;;;;5096085;28;20488;-55
2023/04/12 08:45:15;;;;;;;10.15;3.17;;;8.10;86.20;;;;;;5095689;28;20029;-56
2023/04/12 08:47:43;;;;;;;8.43;3.58;;;8.20;86.70;;;;;;5076868;28;20111;-57
2023/04/12 08:50:13;;;;;;;8.13;2.92;;;8.20;86.80;;;;;;5075493;28;20330;-55
2023/04/12 08:52:41;;;;;;;8.18;3.22;;;8.10;86.90;;;;;;5068590;28;20106;-58
2023/04/12 08:55:10;;;;;;;9.55;3.08;;;8.10;87.30;;;;;;5061116;28;20020;-59
2023/04/12 08:57:40;;;;;;;8.23;3.50;;;8.10;87.50;;;;;;5060464;28;20031;-56
2023/04/12 09:00:10;;;;;;;9.40;4.15;;;8.10;87.70;;;;;;5057762;28;20104;-56
2023/04/12 09:02:37;;;;;;;5.95;3.58;;;8.10;88.00;;;;;;5074986;28;20458;-53
2023/04/12 09:05:08;;;;;;;6.68;3.88;;;8.20;88.40;;;;;;5074523;28;20032;-56
2023/04/12 09:07:35;;;;;;;9.60;3.15;;;8.20;88.50;;;;;;5058162;28;20035;-56
2023/04/12 09:10:03;;;;;;;8.93;3.65;;;8.20;88.80;;;;;;5075111;28;20039;-57
2023/04/12 09:12:30;;;;;;;12.98;4.95;;;8.20;88.70;;;;;;5078238;28;20040;-56
2023/04/12 09:15:12;;;;;;;7.32;3.85;;;8.20;89.10;;;;;;5095161;28;20031;-58
2023/04/12 09:17:40;;;;;;;10.85;3.75;;;8.30;88.90;;;;;;5084535;28;20462;-58
2023/04/12 09:20:18;;;;;;;12.13;5.78;;;8.30;89.00;;;;;;5074035;28;20052;-56
2023/04/12 09:22:46;;;;;;;11.90;4.35;;;8.30;89.20;;;;;;5074818;28;20027;-54
2023/04/12 09:25:16;;;;;;;5.13;2.80;;;8.30;89.30;;;;;;5074601;28;20017;-55
2023/04/12 09:27:50;;;;;;;5.70;3.05;;;8.40;89.10;;;;;;5074592;28;20028;-57
2023/04/12 09:30:19;;;;;;;8.77;3.33;;;8.40;89.40;;;;;;5074680;28;20031;-57
2023/04/12 09:32:48;;;;;;;11.80;3.92;;;8.40;89.80;;;;;;5074841;28;20108;-55
2023/04/12 09:35:15;;;;;;;5.50;3.30;;;8.30;89.80;;;;;;5074408;28;20025;-56
2023/04/12 09:37:42;;;;;;;6.05;2.65;;;8.30;90.00;;;;;;5074319;28;20049;-55
2023/04/12 09:40:09;;;;;;;9.32;2.95;;;8.40;90.20;;;;;;5074527;28;20074;-55
2023/04/12 09:42:52;;;;;;;7.25;3.13;;;8.40;90.40;;;;;;5056775;28;20024;-54
2023/04/12 09:45:25;;;;;;;7.57;3.40;;;8.50;90.20;;;;;;5074636;28;20068;-59
2023/04/12 09:47:53;;;;;;;8.10;3.72;;;8.50;90.10;;;;;;5056849;28;20036;-55
2023/04/12 09:50:28;;;;;;;8.95;3.33;;;8.70;90.20;;;;;;5073870;28;20674;-57
2023/04/12 09:52:59;;;;;;;7.22;2.97;;;8.70;89.90;;;;;;5074083;28;20055;-56
2023/04/12 09:55:30;;;;;;;6.07;3.17;;;8.80;90.00;;;;;;5074130;28;20082;-59
2023/04/12 09:58:02;;;;;;;7.05;3.30;;;8.90;90.00;;;;;;5073699;28;20031;-59
2023/04/12 10:00:30;;;;;;;6.63;3.30;;;8.90;89.90;;;;;;5055723;28;20259;-58
2023/04/12 10:02:57;;;;;;;10.52;3.33;;;9.00;90.00;;;;;;5056023;28;20016;-59
2023/04/12 10:05:24;;;;;;;7.97;3.47;;;9.20;89.90;;;;;;5073291;28;20046;-58
2023/04/12 10:07:52;;;;;;;6.47;3.35;;;9.30;89.70;;;;;;5072867;28;20119;-57
2023/04/12 10:10:19;;;;;;;7.43;3.35;;;9.40;89.40;;;;;;5073829;28;20025;-58
2023/04/12 10:12:51;;;;;;;6.68;3.45;;;9.30;88.60;;;;;;5073871;28;20071;-58
2023/04/12 10:15:19;;;;;;;5.35;3.08;;;9.40;89.10;;;;;;5073679;28;20044;-56
2023/04/12 10:17:56;;;;;;;7.57;3.30;;;9.40;88.90;;;;;;5089456;28;20043;-57
2023/04/12 10:20:23;;;;;;;6.15;3.42;;;9.20;88.60;;;;;;5094025;28;20020;-59
2023/04/12 10:22:52;;;;;;;7.80;3.45;;;9.20;89.20;;;;;;5093946;28;20016;-57
2023/04/12 10:25:24;;;;;;;4.65;3.20;;;9.20;89.30;;;;;;5087226;28;20059;-55
2023/04/12 10:27:54;;;;;;;6.53;3.10;;;9.20;89.40;;;;;;5073225;28;20101;-56
2023/04/12 10:30:38;;;;;;;;;;;9.00;89.10;;;;;;5074130;28;20021;-57
2023/04/12 10:33:09;;;;;;;7.63;3.85;;;8.90;89.40;;;;;;5073529;28;19922;-53
2023/04/12 10:36:11;;;;;;;7.30;3.75;;;8.90;89.80;;;;;;5073346;28;20025;-57
2023/04/12 10:38:45;;;;;;;6.57;3.67;;;8.90;90.00;;;;;;5055591;28;20032;-59
2023/04/12 10:41:20;;;;;;;6.80;3.97;;;8.80;90.10;;;;;;5073002;28;20450;-57
2023/04/12 10:43:48;;;;;;;11.23;3.67;;;8.80;90.40;;;;;;5055657;28;20107;-57
2023/04/12 10:46:53;;;;;;;7.72;3.88;;;8.80;90.40;;;;;;5085218;28;20024;-59
2023/04/12 10:49:19;;;;;;;5.85;3.50;;;8.80;90.60;;;;;;5093332;28;20036;-57
2023/04/12 10:52:00;;;;;;;6.18;4.28;;;8.80;90.80;;;;;;5075134;28;20128;-57
2023/04/12 10:54:26;;;;;;;9.07;4.20;;;8.80;90.70;;;;;;5088763;28;20043;-58
2023/04/12 10:56:56;;;;;;;9.85;4.63;;;8.70;90.90;;;;;;5072785;28;20615;-56
2023/04/12 10:59:23;;;;;;;8.98;4.47;;;8.80;91.10;;;;;;5073439;28;20027;-56
2023/04/12 11:02:10;;;;;;;7.28;4.80;;;8.80;91.20;;;;;;5083558;28;20024;-59
2023/04/12 11:04:38;;;;;;;9.32;4.93;;;8.70;91.20;;;;;;5093318;28;20024;-58
2023/04/12 11:07:10;;;;;;;7.18;4.85;;;8.70;91.40;;;;;;5093283;28;20070;-58
2023/04/12 11:09:56;;;;;;;6.13;4.20;;;8.80;91.40;;;;;;5087167;28;20024;-58
2023/04/12 11:12:27;;;;;;;7.57;4.57;;;8.70;91.40;;;;;;5072918;28;20068;-58
2023/04/12 11:15:00;;;;;;;5.72;4.40;;;8.80;91.50;;;;;;5055301;28;20032;-60
2023/04/12 11:17:27;;;;;;;6.80;4.75;;;8.80;91.50;;;;;;5055459;28;20036;-57
2023/04/12 11:19:59;;;;;;;6.60;4.97;;;8.90;91.50;;;;;;5075931;28;20028;-59
2023/04/12 11:22:29;;;;;;;6.93;4.70;;;8.90;91.50;;;;;;5079507;28;20481;-60
2023/04/12 11:24:58;;;;;;;6.82;4.28;;;8.90;91.20;;;;;;5061587;28;20020;-60
2023/04/12 11:27:29;;;;;;;7.40;4.68;;;8.90;91.20;;;;;;5079080;28;20392;-60
2023/04/12 11:30:00;;;;;;;7.63;4.40;;;9.00;91.10;;;;;;5079389;28;20116;-57
2023/04/12 11:32:28;;;;;;;6.95;4.18;;;9.00;91.20;;;;;;5079369;28;20357;-55
2023/04/12 11:34:58;;;;;;;7.28;4.32;;;9.00;91.20;;;;;;5062693;28;20354;-57
2023/04/12 11:37:25;;;;;;;6.05;3.95;;;9.10;91.10;;;;;;5099573;28;20445;-59
2023/04/12 11:39:54;;;;;;;7.60;4.30;;;9.30;91.30;;;;;;5099470;28;20349;-59
2023/04/12 11:42:26;;;;;;;5.15;3.97;;;9.50;91.20;;;;;;5060711;28;20056;-58
2023/04/12 11:44:53;;;;;;;5.25;3.70;;;9.80;90.90;;;;;;5079416;28;20024;-56
2023/04/12 11:47:21;;;;;;;5.43;3.28;;;9.90;90.20;;;;;;5079380;28;20449;-57
2023/04/12 11:49:56;;;;;;;6.43;3.47;;;10.10;89.50;;;;;;5079439;28;20028;-54
2023/04/12 11:52:33;;;;;;;6.55;3.50;;;10.20;89.40;;;;;;5061950;28;20024;-55
2023/04/12 11:55:05;;;;;;;5.03;3.47;;;10.20;89.10;;;;;;5079037;28;20056;-55
2023/04/12 11:57:33;;;;;;;4.55;2.72;;;10.20;88.60;;;;;;5061923;28;20032;-54
2023/04/12 12:00:00;;;;;;;3.83;2.58;;;10.20;88.50;;;;;;5089357;28;20031;-55
2023/04/12 12:02:27;;;;;;;4.88;3.13;;;10.10;88.40;;;;;;5099439;28;20020;-54
2023/04/12 12:04:56;;;;;;;4.75;3.28;;;10.10;88.80;;;;;;5099248;28;20636;-57
2023/04/12 12:07:22;;;;;;;5.10;3.38;;;10.00;88.70;;;;;;5099483;28;20106;-57
2023/04/12 12:09:50;;;;;;;5.25;2.97;;;9.90;88.50;;;;;;5082176;28;20036;-59
2023/04/12 12:12:15;;;;;;;6.15;3.10;;;9.90;89.20;;;;;;5078972;28;20055;-58
2023/04/12 12:14:43;;;;;;;4.35;3.05;;;9.90;89.30;;;;;;5079049;28;20120;-57
2023/04/12 12:17:12;;;;;;;5.00;2.92;;;9.90;89.40;;;;;;5079016;28;20120;-60
2023/04/12 12:19:42;;;;;;;4.22;2.80;;;9.90;89.20;;;;;;5061457;28;20028;-60
2023/04/12 12:22:26;;;;;;;4.80;2.53;;;10.00;89.30;;;;;;5078875;28;20108;-60
2023/04/12 12:24:58;;;;;;;3.67;2.38;;;10.00;89.20;;;;;;5078667;28;20051;-60
2023/04/12 12:27:47;;;;;;;3.47;2.33;;;10.10;89.20;;;;;;5060608;28;20438;-60
2023/04/12 12:30:19;;;;;;;3.90;2.13;;;10.20;89.10;;;;;;5060196;28;20029;-60
2023/04/12 12:32:51;;;;;;;4.70;2.20;;;10.00;88.40;;;;;;5056959;28;20028;-61
2023/04/12 12:35:18;;;;;;;2.60;1.50;;;10.00;88.50;;;;;;5075404;28;20035;-59
2023/04/12 12:37:54;;;;;;;2.50;1.60;;;9.90;88.20;;;;;;5058085;28;20411;-55
2023/04/12 12:40:34;;;;;;;2.95;1.70;;;10.00;88.00;;;;;;5075726;28;20144;-58
2023/04/12 12:43:00;;;;;;;4.53;2.05;;;10.00;87.80;;;;;;5075450;28;20355;-58
2023/04/12 12:45:28;;;;;;;2.50;1.50;;;10.10;88.60;;;;;;5075582;28;20038;-58
2023/04/12 12:48:12;;;;;;;2.88;1.70;;;10.10;88.60;;;;;;5057778;28;20316;-58
2023/04/12 12:50:41;;;;;;;2.55;1.58;;;10.10;88.70;;;;;;5058023;28;20367;-55
2023/04/12 12:53:09;;;;;;;2.53;1.80;;;10.20;89.20;;;;;;5075285;28;20028;-57
2023/04/12 12:55:36;;;;;;;2.85;1.33;;;10.30;89.10;;;;;;5075344;28;20667;-52
2023/04/12 12:58:03;;;;;;;2.38;1.35;;;10.40;88.60;;;;;;5075059;28;20016;-54
2023/04/12 13:00:30;;;;;;;3.38;1.20;;;10.50;88.40;;;;;;5076171;28;20047;-53
2023/04/12 13:02:58;;;;;;;1.75;1.10;;;10.60;88.60;;;;;;5057517;28;20021;-50
2023/04/12 13:05:25;;;;;;;3.80;1.27;;;10.70;87.80;;;;;;5075076;28;20041;-50
2023/04/12 13:07:52;;;;;;;2.78;1.60;;;10.70;87.40;;;;;;5074862;28;20055;-50